Time;durP1;ratioP1;P1;durP2;ratioP2;P2;SDS_P1;SDS_P2;PMS_P1;PMS_P2;Temp;Humidity;BMP_temperature;BMP_pressure;BME280_temperature;BME280_humidity;BME280_pressure;Samples;Min_cycle;Max_cycle;Signal;HPM_P1;HPM_P2
2021/12/09 00:01:11;;;;;;;25.02;10.75;;;;;;;-8.56;79.96;100781.00;5090785;28;20052;-44
2021/12/09 00:03:41;;;;;;;36.38;11.95;;;;;;;-8.58;79.78;100783.41;5084335;28;20138;-45
2021/12/09 00:06:12;;;;;;;30.63;12.85;;;;;;;-8.58;79.99;100780.03;5086241;28;20059;-45
2021/12/09 00:08:42;;;;;;;28.33;11.52;;;;;;;-8.57;79.64;100785.16;5085488;28;20044;-45
2021/12/09 00:11:09;;;;;;;23.10;10.48;;;;;;;-8.57;79.50;100789.31;5085693;28;20056;-45
2021/12/09 00:13:38;;;;;;;25.73;10.40;;;;;;;-8.60;80.01;100789.97;5083833;28;20052;-45
2021/12/09 00:16:06;;;;;;;24.15;10.82;;;;;;;-8.60;80.38;100795.00;5087149;28;20047;-44
2021/12/09 00:18:33;;;;;;;22.27;10.30;;;;;;;-8.61;80.55;100798.28;5086159;28;20047;-45
2021/12/09 00:21:00;;;;;;;25.00;10.43;;;;;;;-8.64;80.03;100781.34;5084379;28;20171;-44
2021/12/09 00:23:27;;;;;;;26.08;10.05;;;;;;;-8.63;79.95;100779.72;5086051;28;20060;-43
2021/12/09 00:25:56;;;;;;;26.13;9.30;;;;;;;-8.63;79.91;100779.72;5086561;28;20060;-44
2021/12/09 00:28:23;;;;;;;24.27;9.80;;;;;;;-8.63;79.97;100784.75;5091287;28;20035;-45
2021/12/09 00:30:50;;;;;;;20.75;10.23;;;;;;;-8.63;80.74;100784.75;5091768;28;20046;-45
2021/12/09 00:33:18;;;;;;;25.52;10.65;;;;;;;-8.65;80.29;100783.75;5087311;28;20495;-46
2021/12/09 00:35:49;;;;;;;24.42;10.35;;;;;;;-8.66;80.26;100790.44;5089507;28;20416;-45
2021/12/09 00:38:22;;;;;;;21.05;8.70;;;;;;;-8.64;79.98;100785.50;5085218;28;20047;-46
2021/12/09 00:40:50;;;;;;;22.05;9.27;;;;;;;-8.60;79.97;100782.44;5085818;28;20134;-44
2021/12/09 00:43:20;;;;;;;25.92;9.57;;;;;;;-8.59;80.01;100776.63;5091440;28;20056;-46
2021/12/09 00:45:47;;;;;;;18.90;8.75;;;;;;;-8.57;79.79;100770.06;5086544;28;20083;-43
2021/12/09 00:48:14;;;;;;;20.75;8.93;;;;;;;-8.58;79.72;100758.28;5086564;28;20043;-43
2021/12/09 00:50:42;;;;;;;22.77;9.52;;;;;;;-8.54;79.83;100761.88;5085742;28;20055;-44
2021/12/09 00:53:10;;;;;;;27.67;9.75;;;;;;;-8.53;79.69;100761.09;5089677;28;20055;-44
2021/12/09 00:55:37;;;;;;;23.20;9.80;;;;;;;-8.52;79.28;100761.19;5088550;28;20055;-43
2021/12/09 00:58:05;;;;;;;25.58;9.57;;;;;;;-8.51;79.12;100765.47;5088050;28;20057;-45
2021/12/09 01:00:34;;;;;;;24.25;9.75;;;;;;;-8.51;79.40;100760.44;5085134;28;20063;-42
2021/12/09 01:03:01;;;;;;;19.52;8.60;;;;;;;-8.45;79.35;100755.81;5087336;28;20056;-44
2021/12/09 01:05:29;;;;;;;20.58;8.07;;;;;;;-8.43;78.83;100743.34;5088345;28;20481;-43
2021/12/09 01:07:56;;;;;;;20.67;8.20;;;;;;;-8.43;78.37;100749.25;5087795;28;20053;-45
2021/12/09 01:10:24;;;;;;;24.60;8.70;;;;;;;-8.42;77.93;100751.00;5084537;28;20051;-44
2021/12/09 01:12:51;;;;;;;24.85;9.43;;;;;;;-8.41;78.50;100742.69;5091642;28;20054;-43
2021/12/09 01:15:19;;;;;;;22.77;9.13;;;;;;;-8.40;78.27;100744.41;5088167;28;20056;-44
2021/12/09 01:17:50;;;;;;;18.00;8.90;;;;;;;-8.40;78.06;100749.44;5085511;28;20105;-43
2021/12/09 01:20:19;;;;;;;25.70;10.15;;;;;;;-8.39;77.84;100741.13;5088029;28;20067;-44
2021/12/09 01:22:47;;;;;;;20.25;8.43;;;;;;;-8.37;77.58;100744.63;5086727;28;20145;-45
2021/12/09 01:25:18;;;;;;;21.98;8.65;;;;;;;-8.37;78.08;100739.59;5085740;28;20071;-44
2021/12/09 01:27:47;;;;;;;30.75;10.18;;;;;;;-8.38;77.63;100737.84;5092455;28;20048;-43
2021/12/09 01:30:17;;;;;;;19.40;8.73;;;;;;;-8.38;77.69;100735.34;5089287;28;20385;-47
2021/12/09 01:32:51;;;;;;;23.55;10.00;;;;;;;-8.41;77.73;100730.09;5088713;28;20087;-45
2021/12/09 01:35:20;;;;;;;31.00;11.32;;;;;;;-8.40;78.13;100734.38;5087864;28;20464;-43
2021/12/09 01:37:54;;;;;;;28.10;10.98;;;;;;;-8.39;78.36;100736.09;5086394;28;20054;-45
2021/12/09 01:40:22;;;;;;;26.33;10.48;;;;;;;-8.41;77.65;100732.63;5087252;28;20059;-45
2021/12/09 01:42:50;;;;;;;22.42;10.10;;;;;;;-8.39;78.10;100730.22;5086672;28;20067;-44
2021/12/09 01:45:17;;;;;;;26.17;10.15;;;;;;;-8.40;77.72;100724.31;5088052;28;20109;-44
2021/12/09 01:47:45;;;;;;;22.92;9.80;;;;;;;-8.41;77.76;100722.56;5085781;28;20483;-44
2021/12/09 01:50:14;;;;;;;26.73;10.57;;;;;;;-8.42;78.13;100720.81;5085103;28;20051;-44
2021/12/09 01:52:42;;;;;;;23.75;9.88;;;;;;;-8.41;78.31;100722.56;5086602;28;20048;-43
2021/12/09 01:55:11;;;;;;;25.02;9.38;;;;;;;-8.41;77.91;100712.50;5084167;28;20040;-45
2021/12/09 01:57:39;;;;;;;28.30;10.57;;;;;;;-8.38;78.30;100710.19;5084254;28;20052;-44
2021/12/09 02:00:07;;;;;;;27.05;10.43;;;;;;;-8.37;78.46;100709.44;5082536;28;20047;-44
2021/12/09 02:02:35;;;;;;;24.40;9.35;;;;;;;-8.36;78.21;100706.13;5081724;28;20048;-44
2021/12/09 02:05:02;;;;;;;24.73;9.52;;;;;;;-8.35;77.92;100702.84;5090576;28;20044;-44
2021/12/09 02:07:30;;;;;;;25.30;10.52;;;;;;;-8.33;77.86;100695.41;5085846;28;20062;-43
2021/12/09 02:09:57;;;;;;;22.00;9.30;;;;;;;-8.34;78.00;100698.69;5084513;28;20060;-44
2021/12/09 02:12:25;;;;;;;21.38;9.00;;;;;;;-8.35;77.58;100702.84;5084990;28;20499;-43
2021/12/09 02:14:53;;;;;;;20.75;8.75;;;;;;;-8.34;78.12;100694.53;5084133;28;20067;-44
2021/12/09 02:17:21;;;;;;;25.27;10.18;;;;;;;-8.31;78.80;100694.75;5083546;28;20048;-43
2021/12/09 02:19:48;;;;;;;23.38;10.05;;;;;;;-8.29;78.11;100692.31;5082225;28;20393;-44
2021/12/09 02:22:17;;;;;;;25.20;9.57;;;;;;;-8.27;78.46;100691.66;5086375;28;20044;-44
2021/12/09 02:24:44;;;;;;;24.98;9.38;;;;;;;-8.23;78.04;100686.81;5083435;28;20064;-44
2021/12/09 02:27:11;;;;;;;22.05;8.52;;;;;;;-8.20;78.17;100689.53;5083244;28;20049;-44
2021/12/09 02:29:40;;;;;;;31.88;12.82;;;;;;;-8.16;78.16;100688.97;5084888;28;20109;-44
2021/12/09 02:32:08;;;;;;;26.27;12.52;;;;;;;-8.15;78.47;100690.72;5087449;28;20062;-44
2021/12/09 02:34:36;;;;;;;32.95;13.55;;;;;;;-8.15;78.51;100679.00;5094195;28;20067;-44
2021/12/09 02:37:04;;;;;;;51.40;17.80;;;;;;;-8.16;78.42;100676.38;5085657;28;20056;-44
2021/12/09 02:39:33;;;;;;;37.80;14.15;;;;;;;-8.15;78.91;100670.59;5090557;28;20044;-44
2021/12/09 02:42:00;;;;;;;28.95;11.60;;;;;;;-8.14;78.89;100672.31;5092260;28;20044;-45
2021/12/09 02:44:27;;;;;;;35.00;13.50;;;;;;;-8.09;78.91;100663.44;5090845;28;20056;-44
2021/12/09 02:46:56;;;;;;;39.08;15.20;;;;;;;-8.07;78.70;100664.41;5089049;28;20046;-43
2021/12/09 02:49:27;;;;;;;29.73;13.43;;;;;;;-8.04;79.18;100669.63;5091654;28;20055;-43
2021/12/09 02:51:55;;;;;;;28.67;12.45;;;;;;;-8.03;78.96;100664.69;5089285;28;20050;-44
2021/12/09 02:54:24;;;;;;;27.52;12.43;;;;;;;-7.99;79.17;100670.78;5089383;28;20051;-43
2021/12/09 02:56:55;;;;;;;31.48;11.88;;;;;;;-7.97;79.12;100671.75;5089658;28;20067;-44
2021/12/09 02:59:22;;;;;;;24.80;10.88;;;;;;;-7.92;79.26;100662.88;5089970;28;20043;-44
2021/12/09 03:01:57;;;;;;;27.88;11.10;;;;;;;-7.88;79.23;100667.31;5087679;28;20055;-45
2021/12/09 03:04:26;;;;;;;29.85;11.20;;;;;;;-7.84;79.18;100664.22;5088826;28;20044;-45
2021/12/09 03:06:53;;;;;;;24.75;9.93;;;;;;;-7.80;79.13;100657.75;5091011;28;20047;-44
2021/12/09 03:09:23;;;;;;;25.48;11.32;;;;;;;-7.76;78.89;100663.09;5086694;28;20040;-50
2021/12/09 03:11:55;;;;;;;21.35;10.60;;;;;;;-7.70;79.03;100653.41;5086066;28;20048;-44
2021/12/09 03:14:24;;;;;;;28.17;11.52;;;;;;;-7.61;79.44;100647.19;5093431;28;20051;-44
2021/12/09 03:16:52;;;;;;;28.15;9.75;;;;;;;-7.54;79.26;100654.34;5094864;27;20055;-45
2021/12/09 03:19:19;;;;;;;23.15;11.13;;;;;;;-7.50;79.33;100641.16;5088255;28;22077;-45
2021/12/09 03:21:48;;;;;;;26.65;11.05;;;;;;;-7.44;79.59;100652.50;5086460;28;20048;-44
2021/12/09 03:24:18;;;;;;;25.10;10.73;;;;;;;-7.37;79.53;100644.53;5090730;28;20435;-46
2021/12/09 03:26:48;;;;;;;19.42;9.73;;;;;;;-7.30;79.31;100638.22;5088867;28;20047;-45
2021/12/09 03:29:18;;;;;;;24.70;10.38;;;;;;;-7.27;78.87;100635.91;5093894;28;20047;-45
2021/12/09 03:31:47;;;;;;;20.27;9.55;;;;;;;-7.23;79.15;100632.81;5086486;28;20109;-45
2021/12/09 03:34:15;;;;;;;20.23;9.45;;;;;;;-7.18;79.39;100636.47;5089076;28;20064;-44
2021/12/09 03:36:43;;;;;;;23.08;10.02;;;;;;;-7.13;79.30;100647.69;5087477;28;20048;-44
2021/12/09 03:39:13;;;;;;;20.35;8.95;;;;;;;-7.07;79.10;100650.59;5088776;28;20071;-44
2021/12/09 03:41:41;;;;;;;17.77;8.38;;;;;;;-7.02;78.82;100649.22;5088668;28;20047;-44
2021/12/09 03:44:09;;;;;;;18.55;8.95;;;;;;;-7.01;78.55;100640.88;5089552;28;20130;-44
2021/12/09 03:46:38;;;;;;;20.30;9.40;;;;;;;-6.95;78.36;100657.13;5086896;28;20562;-43
2021/12/09 03:49:06;;;;;;;20.67;8.70;;;;;;;-6.92;78.64;100650.63;5089506;28;20048;-44
2021/12/09 03:51:35;;;;;;;18.27;8.38;;;;;;;-6.89;78.21;100642.38;5088264;28;20097;-46
2021/12/09 03:54:03;;;;;;;20.17;8.98;;;;;;;-6.87;78.17;100624.03;5092359;28;20055;-45
2021/12/09 03:56:30;;;;;;;18.60;9.05;;;;;;;-6.83;78.29;100628.47;5089991;28;20044;-45
2021/12/09 03:58:57;;;;;;;22.42;9.48;;;;;;;-6.79;78.25;100632.06;5094284;27;20796;-45
2021/12/09 04:01:25;;;;;;;28.20;11.10;;;;;;;-6.77;78.41;100638.06;5089326;28;20048;-45
2021/12/09 04:03:54;;;;;;;21.50;10.07;;;;;;;-6.74;78.24;100641.66;5087469;28;20059;-45
2021/12/09 04:06:21;;;;;;;21.80;9.45;;;;;;;-6.72;78.05;100639.22;5085852;28;20145;-45
2021/12/09 04:08:48;;;;;;;21.95;9.07;;;;;;;-6.72;77.67;100641.75;5089461;28;20056;-44
2021/12/09 04:11:16;;;;;;;22.30;9.60;;;;;;;-6.74;77.75;100645.81;5087682;28;20128;-44
2021/12/09 04:13:43;;;;;;;19.30;9.02;;;;;;;-6.77;77.75;100645.63;5087459;28;20090;-43
2021/12/09 04:16:10;;;;;;;20.17;9.00;;;;;;;-6.78;77.59;100648.91;5087448;28;20044;-46
2021/12/09 04:18:40;;;;;;;24.52;8.98;;;;;;;-6.80;78.13;100645.44;5087676;28;20052;-43
2021/12/09 04:21:09;;;;;;;22.83;9.77;;;;;;;-6.82;78.20;100652.03;5087576;28;20614;-43
2021/12/09 04:23:37;;;;;;;18.92;8.50;;;;;;;-6.85;78.49;100639.25;5090535;28;20249;-46
2021/12/09 04:26:05;;;;;;;25.65;9.77;;;;;;;-6.90;78.21;100638.13;5086188;28;20092;-44
2021/12/09 04:28:32;;;;;;;25.10;10.25;;;;;;;-6.92;78.41;100639.66;5085697;28;20113;-44
2021/12/09 04:31:00;;;;;;;20.42;9.52;;;;;;;-6.95;78.50;100629.41;5084550;28;20608;-43
2021/12/09 04:33:29;;;;;;;24.10;10.52;;;;;;;-6.97;78.55;100630.97;5089360;28;20044;-43
2021/12/09 04:35:57;;;;;;;18.58;9.32;;;;;;;-6.97;78.76;100630.97;5083960;28;20052;-44
2021/12/09 04:38:26;;;;;;;23.15;9.00;;;;;;;-6.98;78.97;100614.13;5088517;28;20062;-44
2021/12/09 04:40:53;;;;;;;24.35;9.00;;;;;;;-6.96;78.90;100627.66;5088241;28;20051;-43
2021/12/09 04:43:20;;;;;;;20.13;9.75;;;;;;;-6.95;79.03;100621.84;5087318;28;20047;-44
2021/12/09 04:45:47;;;;;;;25.25;10.35;;;;;;;-6.91;79.25;100616.22;5083784;28;20048;-44
2021/12/09 04:48:15;;;;;;;23.55;10.52;;;;;;;-6.90;79.95;100617.94;5083187;28;20052;-45
2021/12/09 04:50:43;;;;;;;19.75;8.95;;;;;;;-6.88;79.78;100626.47;5088340;28;20043;-45
2021/12/09 04:53:11;;;;;;;23.85;10.07;;;;;;;-6.85;79.78;100621.59;5087383;28;20110;-45
2021/12/09 04:55:40;;;;;;;24.83;11.70;;;;;;;-6.80;80.08;100625.28;5083425;28;20056;-44
2021/12/09 04:58:07;;;;;;;20.75;8.85;;;;;;;-6.77;79.77;100627.97;5090718;28;20062;-46
2021/12/09 05:00:38;;;;;;;23.75;9.43;;;;;;;-6.74;79.23;100630.69;5086638;28;20123;-45
2021/12/09 05:03:09;;;;;;;26.55;10.45;;;;;;;-6.74;79.18;100625.66;5086699;28;20492;-47
2021/12/09 05:05:38;;;;;;;25.25;10.80;;;;;;;-6.71;78.93;100615.75;5082499;28;20518;-43
2021/12/09 05:08:08;;;;;;;25.55;9.77;;;;;;;-6.68;79.28;100621.84;5086710;28;20054;-44
2021/12/09 05:10:50;;;;;;;26.35;10.98;;;;;;;-6.64;78.97;100622.03;5086595;28;20054;-44
2021/12/09 05:13:19;;;;;;;24.77;10.68;;;;;;;-6.62;78.83;100611.25;5095611;28;20044;-44
2021/12/09 05:15:48;;;;;;;24.20;11.07;;;;;;;-6.56;79.07;100608.19;5085857;28;20048;-43
2021/12/09 05:18:16;;;;;;;18.25;8.63;;;;;;;-6.54;78.65;100607.50;5091581;28;20048;-43
2021/12/09 05:20:43;;;;;;;23.85;9.10;;;;;;;-6.52;78.78;100616.03;5084776;28;20040;-44
2021/12/09 05:23:11;;;;;;;21.23;9.23;;;;;;;-6.50;78.39;100627.06;5090175;28;20067;-44
2021/12/09 05:25:38;;;;;;;20.38;8.35;;;;;;;-6.51;78.01;100625.34;5090284;28;20114;-45
2021/12/09 05:28:07;;;;;;;19.52;8.60;;;;;;;-6.52;77.86;100631.16;5089383;28;20047;-48
2021/12/09 05:32:07;;;;;;;22.17;7.90;;;;;;;-6.51;77.99;100620.28;5086013;28;20040;-43
2021/12/09 05:33:27;;;;;;;19.88;7.97;;;;;;;-6.51;77.76;100620.28;5088679;28;20481;-44
2021/12/09 05:35:55;;;;;;;13.35;6.47;;;;;;;-6.50;77.85;100617.00;5092020;28;20052;-44
2021/12/09 05:38:22;;;;;;;15.38;6.80;;;;;;;-6.50;78.20;100617.00;5084928;28;20400;-44
2021/12/09 05:40:50;;;;;;;19.20;7.10;;;;;;;-6.49;77.75;100618.72;5089303;28;20036;-44
2021/12/09 05:43:18;;;;;;;12.82;7.25;;;;;;;-6.46;77.93;100611.34;5088972;28;20046;-46
2021/12/09 05:45:48;;;;;;;17.83;6.65;;;;;;;-6.44;77.80;100614.81;5086620;28;20048;-44
2021/12/09 05:48:16;;;;;;;15.00;6.55;;;;;;;-6.43;78.06;100606.47;5085647;28;20595;-45
2021/12/09 05:50:43;;;;;;;14.40;6.28;;;;;;;-6.42;78.01;100600.63;5092245;28;20055;-48
2021/12/09 05:53:10;;;;;;;14.68;6.55;;;;;;;-6.37;77.95;100611.84;5091342;28;20048;-45
2021/12/09 05:55:38;;;;;;;13.15;6.82;;;;;;;-6.37;78.02;100621.94;5092038;28;20052;-46
2021/12/09 05:58:05;;;;;;;17.10;7.90;;;;;;;-6.36;77.87;100616.13;5084044;28;20052;-45
2021/12/09 06:00:32;;;;;;;16.02;6.75;;;;;;;-6.39;77.49;100615.94;5085803;28;20048;-47
2021/12/09 06:03:01;;;;;;;18.48;7.00;;;;;;;-6.36;77.56;100631.25;5086090;28;20052;-46
2021/12/09 06:05:28;;;;;;;12.98;5.85;;;;;;;-6.29;77.82;100634.13;5089615;28;20051;-46
2021/12/09 06:07:55;;;;;;;16.60;6.70;;;;;;;-6.27;77.51;100635.06;5092881;28;20054;-46
2021/12/09 06:10:23;;;;;;;14.02;6.78;;;;;;;-6.24;77.52;100632.72;5092769;28;20040;-44
2021/12/09 06:12:50;;;;;;;16.23;7.45;;;;;;;-6.21;77.72;100630.41;5092213;28;20668;-44
2021/12/09 06:15:17;;;;;;;18.10;7.20;;;;;;;-6.21;77.83;100623.72;5097788;28;20044;-45
2021/12/09 06:17:44;;;;;;;15.52;7.07;;;;;;;-6.20;77.87;100633.00;5095725;28;20395;-45
2021/12/09 06:20:13;;;;;;;17.65;8.52;;;;;;;-6.17;77.98;100632.31;5094586;28;20040;-45
2021/12/09 06:22:40;;;;;;;13.80;6.78;;;;;;;-6.12;77.96;100641.88;5093786;28;20083;-44
2021/12/09 06:25:09;;;;;;;16.52;7.63;;;;;;;-6.13;77.79;100630.06;5099168;28;20043;-44
2021/12/09 06:27:36;;;;;;;16.10;6.97;;;;;;;-6.11;77.86;100627.63;5089534;28;20051;-43
2021/12/09 06:30:04;;;;;;;15.63;7.25;;;;;;;-6.12;78.05;100616.66;5089032;28;20059;-44
2021/12/09 06:32:31;;;;;;;13.02;7.05;;;;;;;-6.09;78.24;100616.81;5094282;28;20066;-44
2021/12/09 06:34:58;;;;;;;17.52;7.80;;;;;;;-6.08;78.27;100615.16;5089472;28;20276;-44
2021/12/09 06:37:27;;;;;;;16.05;7.80;;;;;;;-6.03;78.54;100621.34;5096345;28;20044;-45
2021/12/09 06:39:54;;;;;;;18.42;7.75;;;;;;;-6.01;78.21;100607.16;5095739;28;20051;-47
2021/12/09 06:42:21;;;;;;;17.33;7.05;;;;;;;-6.00;78.23;100616.47;5094433;28;20606;-46
2021/12/09 06:44:48;;;;;;;14.80;6.53;;;;;;;-5.98;78.41;100616.53;5092258;28;20055;-43
2021/12/09 06:47:16;;;;;;;14.60;6.70;;;;;;;-5.99;78.19;100608.09;5096828;28;20135;-46
2021/12/09 06:49:43;;;;;;;20.10;8.40;;;;;;;-5.99;78.44;100618.19;5092544;28;20047;-46
2021/12/09 06:52:11;;;;;;;16.70;7.97;;;;;;;-5.98;78.67;100619.94;5093830;28;20075;-45
2021/12/09 06:54:39;;;;;;;17.08;7.80;;;;;;;-6.00;78.69;100619.00;5096406;28;20051;-46
2021/12/09 06:57:07;;;;;;;18.48;7.85;;;;;;;-6.03;79.33;100610.38;5095753;28;20515;-46
2021/12/09 06:59:36;;;;;;;18.13;6.28;;;;;;;-6.04;79.70;100619.59;5090057;28;20048;-46
2021/12/09 07:02:04;;;;;;;15.93;7.30;;;;;;;-6.02;80.06;100618.03;5099381;27;20145;-46
2021/12/09 07:04:31;;;;;;;18.63;7.43;;;;;;;-6.02;80.04;100623.06;5099825;28;20048;-44
2021/12/09 07:06:58;;;;;;;18.50;7.57;;;;;;;-6.02;80.46;100620.56;5093041;28;20142;-43
2021/12/09 07:09:28;;;;;;;16.10;7.53;;;;;;;-6.02;80.72;100623.06;5099942;28;20472;-44
2021/12/09 07:11:57;;;;;;;14.38;8.27;;;;;;;-6.02;80.83;100630.66;5079427;28;20048;-44
2021/12/09 07:14:24;;;;;;;18.55;8.07;;;;;;;-6.05;81.39;100636.41;5091619;28;20047;-44
2021/12/09 07:16:51;;;;;;;19.58;7.88;;;;;;;-6.05;81.37;100638.06;5099583;28;20071;-43
2021/12/09 07:19:19;;;;;;;19.10;7.93;;;;;;;-6.03;81.82;100636.47;5093833;28;20093;-45
2021/12/09 07:21:46;;;;;;;19.90;8.80;;;;;;;-6.03;82.06;100641.53;5097412;28;20055;-45
2021/12/09 07:24:13;;;;;;;21.98;8.73;;;;;;;-6.03;82.26;100646.56;5102040;28;20047;-45
2021/12/09 07:26:41;;;;;;;17.58;7.97;;;;;;;-6.04;82.35;100629.69;5096532;28;20491;-46
2021/12/09 07:29:09;;;;;;;15.52;7.32;;;;;;;-6.02;82.31;100629.78;5104345;28;20048;-44
2021/12/09 07:31:36;;;;;;;16.83;8.43;;;;;;;-6.00;82.62;100621.50;5096450;28;20039;-43
2021/12/09 07:34:04;;;;;;;17.38;10.30;;;;;;;-5.96;82.71;100623.41;5096330;28;20043;-46
2021/12/09 07:36:31;;;;;;;21.77;9.77;;;;;;;-5.94;82.88;100621.84;5100833;28;20044;-45
2021/12/09 07:38:58;;;;;;;21.80;10.02;;;;;;;-5.91;82.82;100616.97;5094879;28;20048;-49
2021/12/09 07:41:26;;;;;;;16.02;8.60;;;;;;;-5.88;83.17;100614.56;5092081;28;20051;-51
2021/12/09 07:43:54;;;;;;;20.90;9.75;;;;;;;-5.91;83.06;100600.94;5090042;28;20082;-54
2021/12/09 07:46:22;;;;;;;22.00;9.63;;;;;;;-5.91;83.69;100596.78;5094568;28;20039;-55
2021/12/09 07:48:50;;;;;;;21.65;8.93;;;;;;;-5.87;83.72;100593.59;5089760;28;20063;-57
2021/12/09 07:51:17;;;;;;;16.45;7.97;;;;;;;-5.86;83.98;100590.28;5087068;28;20044;-51
2021/12/09 07:53:44;;;;;;;18.25;8.93;;;;;;;-5.86;83.93;100592.81;5089503;28;20770;-50
2021/12/09 07:56:11;;;;;;;21.58;8.90;;;;;;;-5.85;84.14;100597.06;5099318;28;20405;-51
2021/12/09 07:58:38;;;;;;;19.63;8.07;;;;;;;-5.84;83.89;100608.03;5094718;28;20040;-54
2021/12/09 08:01:06;;;;;;;20.63;8.32;;;;;;;-5.88;84.32;100609.53;5088114;28;20039;-52
2021/12/09 08:03:34;;;;;;;21.27;7.95;;;;;;;-5.85;84.08;100608.81;5089690;28;20049;-48
2021/12/09 08:06:01;;;;;;;18.27;8.68;;;;;;;-5.87;84.49;100608.75;5093362;28;20047;-52
2021/12/09 08:08:29;;;;;;;19.27;8.93;;;;;;;-5.84;84.70;100616.47;5088061;28;21724;-54
2021/12/09 08:10:56;;;;;;;17.30;8.05;;;;;;;-5.86;84.85;100615.53;5087634;28;20416;-50
2021/12/09 08:13:23;;;;;;;20.05;7.82;;;;;;;-5.84;84.85;100619.00;5086107;28;20481;-50
2021/12/09 08:15:53;;;;;;;19.13;8.82;;;;;;;-5.80;85.09;100615.88;5092176;28;20134;-47
2021/12/09 08:18:27;;;;;;;18.52;8.43;;;;;;;-5.75;85.49;100614.47;5088967;28;20408;-51
2021/12/09 08:20:58;;;;;;;19.55;9.07;;;;;;;-5.67;85.43;100611.50;5096994;28;20040;-48
2021/12/09 08:23:26;;;;;;;19.30;8.45;;;;;;;-5.60;85.43;100603.47;5096002;28;20078;-53
2021/12/09 08:25:54;;;;;;;17.27;8.27;;;;;;;-5.58;85.25;100599.38;5099066;28;20040;-51
2021/12/09 08:28:21;;;;;;;17.48;8.43;;;;;;;-5.56;85.12;100595.28;5096999;28;20044;-50
2021/12/09 08:30:50;;;;;;;15.80;7.78;;;;;;;-5.58;85.00;100601.91;5099692;28;20103;-49
2021/12/09 08:33:18;;;;;;;22.45;8.45;;;;;;;-5.55;84.93;100597.88;5098081;28;20404;-47
2021/12/09 08:35:45;;;;;;;18.52;8.52;;;;;;;-5.53;85.32;100595.44;5100251;28;20058;-50
2021/12/09 08:38:14;;;;;;;18.70;8.45;;;;;;;-5.50;85.06;100588.88;5096891;28;20161;-52
2021/12/09 08:40:43;;;;;;;17.65;8.18;;;;;;;-5.48;85.22;100588.97;5109127;28;20056;-52
2021/12/09 08:43:10;;;;;;;19.55;8.70;;;;;;;-5.44;84.97;100590.88;5093537;28;20078;-48
2021/12/09 08:45:37;;;;;;;19.08;9.57;;;;;;;-5.43;85.31;100582.50;5096128;28;20055;-46
2021/12/09 08:48:05;;;;;;;19.83;9.57;;;;;;;-5.41;85.29;100585.97;5091799;28;20105;-49
2021/12/09 08:50:33;;;;;;;23.20;10.25;;;;;;;-5.42;85.19;100589.28;5090621;28;20044;-46
2021/12/09 08:53:02;;;;;;;25.73;9.30;;;;;;;-5.40;85.51;100593.63;5091380;28;20050;-47
2021/12/09 08:55:31;;;;;;;21.80;9.35;;;;;;;-5.39;85.69;100589.44;5094859;28;20109;-48
2021/12/09 08:57:58;;;;;;;21.25;9.40;;;;;;;-5.35;85.84;100587.97;5085425;28;20142;-51
2021/12/09 09:00:28;;;;;;;21.33;8.85;;;;;;;-5.31;85.75;100577.22;5088843;28;20056;-51
2021/12/09 09:02:55;;;;;;;18.80;9.18;;;;;;;-5.29;85.74;100571.44;5088076;28;20384;-50
2021/12/09 09:05:22;;;;;;;17.70;8.40;;;;;;;-5.22;85.76;100567.59;5086079;28;20055;-49
2021/12/09 09:07:51;;;;;;;22.60;10.95;;;;;;;-5.15;86.09;100565.47;5085889;28;20589;-48
2021/12/09 09:10:21;;;;;;;22.95;9.95;;;;;;;-5.13;85.45;100556.31;5084690;28;20052;-47
2021/12/09 09:12:51;;;;;;;17.58;9.10;;;;;;;-5.05;85.73;100548.25;5087612;28;20059;-47
2021/12/09 09:15:20;;;;;;;22.88;10.57;;;;;;;-5.05;85.84;100540.69;5095420;28;20408;-47
2021/12/09 09:17:48;;;;;;;21.42;9.60;;;;;;;-4.99;86.05;100548.56;5088267;28;20459;-48
2021/12/09 09:20:18;;;;;;;19.40;9.43;;;;;;;-4.94;85.97;100564.84;5084862;28;20070;-49
2021/12/09 09:22:45;;;;;;;21.17;10.00;;;;;;;-4.83;85.97;100556.13;5084274;28;20040;-49
2021/12/09 09:25:17;;;;;;;27.20;10.70;;;;;;;-4.78;86.29;100564.81;5087951;28;20052;-48
2021/12/09 09:27:44;;;;;;;19.05;9.48;;;;;;;-4.73;85.88;100568.44;5087504;28;20056;-52
2021/12/09 09:30:17;;;;;;;20.70;10.18;;;;;;;-4.72;85.94;100572.69;5084175;28;20419;-54
2021/12/09 09:32:45;;;;;;;23.13;11.60;;;;;;;-4.70;85.94;100561.00;5084037;28;20493;-47
2021/12/09 09:35:12;;;;;;;22.45;10.80;;;;;;;-4.65;86.08;100559.59;5086361;28;20055;-47
2021/12/09 09:37:40;;;;;;;21.48;10.18;;;;;;;-4.62;85.99;100544.56;5087116;28;20069;-47
2021/12/09 09:40:12;;;;;;;28.05;11.45;;;;;;;-4.55;86.24;100556.72;5087684;28;20035;-56
2021/12/09 09:42:59;;;;;;;24.98;11.55;;;;;;;-4.52;85.66;100556.88;5086979;28;20488;-50
2021/12/09 09:45:27;;;;;;;;;;;;;;;-4.54;85.46;100553.41;5086760;28;20476;-50
2021/12/09 09:47:56;;;;;;;25.52;11.25;;;;;;;-4.54;85.67;100550.00;5083478;28;19920;-46
2021/12/09 09:50:23;;;;;;;25.38;11.57;;;;;;;-4.54;85.43;100553.41;5084397;28;20056;-47
2021/12/09 09:52:51;;;;;;;25.13;11.55;;;;;;;-4.54;85.33;100558.44;5092931;28;20067;-46
2021/12/09 09:55:21;;;;;;;24.17;10.98;;;;;;;-4.49;85.16;100554.47;5092957;28;20067;-49
2021/12/09 09:57:50;;;;;;;29.98;13.15;;;;;;;-4.47;85.53;100555.44;5085609;28;20047;-53
2021/12/09 10:00:19;;;;;;;28.20;12.77;;;;;;;-4.47;85.74;100560.47;5085775;28;20059;-50
2021/12/09 10:02:53;;;;;;;29.02;11.55;;;;;;;-4.47;85.41;100564.69;5088987;28;20059;-48
2021/12/09 10:05:25;;;;;;;24.08;11.02;;;;;;;-4.53;84.70;100550.06;5097692;28;20551;-48
2021/12/09 10:07:53;;;;;;;24.92;11.63;;;;;;;-4.55;84.95;100563.44;5100683;28;20048;-48
2021/12/09 10:10:20;;;;;;;25.00;11.93;;;;;;;-4.53;85.05;100550.06;5095829;28;20360;-48
2021/12/09 10:13:02;;;;;;;24.23;11.23;;;;;;;-4.49;84.91;100557.00;5099135;28;20052;-49
2021/12/09 10:15:38;;;;;;;28.05;12.15;;;;;;;-4.49;84.68;100551.94;5097091;28;20051;-50
2021/12/09 10:18:06;;;;;;;;;;;;;;;-4.51;84.47;100553.53;5088380;28;20056;-49
2021/12/09 10:20:49;;;;;;;26.05;11.50;;;;;;;-4.51;84.90;100542.56;5082941;28;19981;-49
2021/12/09 10:23:31;;;;;;;27.35;11.55;;;;;;;-4.41;85.09;100548.91;5089792;28;20040;-54
2021/12/09 10:26:21;;;;;;;27.70;12.40;;;;;;;-4.32;85.18;100541.78;5086872;28;20105;-48
2021/12/09 10:28:52;;;;;;;28.70;12.00;;;;;;;-4.27;85.04;100547.91;5084816;28;20053;-54
2021/12/09 10:31:24;;;;;;;26.70;11.70;;;;;;;-4.30;84.38;100542.72;5087019;28;20044;-49
2021/12/09 10:34:06;;;;;;;22.70;12.13;;;;;;;-4.26;83.83;100542.06;5087731;28;20069;-49
2021/12/09 10:36:56;;;;;;;23.55;11.57;;;;;;;-4.24;83.67;100528.69;5089946;28;20058;-46
2021/12/09 10:39:31;;;;;;;24.92;12.00;;;;;;;-4.24;83.33;100537.94;5084675;28;20055;-50
2021/12/09 10:42:02;;;;;;;23.52;11.90;;;;;;;-4.25;83.01;100536.19;5090109;28;20559;-50
2021/12/09 10:44:39;;;;;;;28.70;13.45;;;;;;;-4.23;83.04;100534.59;5097025;28;20051;-47
2021/12/09 10:47:12;;;;;;;28.65;11.88;;;;;;;-4.23;83.46;100529.56;5097645;28;20533;-50
2021/12/09 10:49:49;;;;;;;22.83;11.50;;;;;;;-4.24;82.87;100518.56;5087803;28;20051;-54
2021/12/09 10:52:36;;;;;;;23.80;11.15;;;;;;;-4.25;83.16;100521.00;5089635;28;20047;-48
2021/12/09 10:55:18;;;;;;;24.73;12.93;;;;;;;-4.21;83.30;100517.84;5100579;28;20044;-46
2021/12/09 10:57:53;;;;;;;27.40;11.95;;;;;;;-4.20;83.20;100522.09;5090920;28;20086;-47
2021/12/09 11:00:25;;;;;;;41.45;16.38;;;;;;;-4.18;83.39;100523.03;5094555;28;20047;-47
2021/12/09 11:03:05;;;;;;;33.80;15.32;;;;;;;-4.12;83.63;100513.22;5089268;28;20059;-49
2021/12/09 11:05:36;;;;;;;29.45;13.35;;;;;;;-4.08;83.76;100507.50;5095049;28;20056;-47
2021/12/09 11:08:22;;;;;;;27.27;11.60;;;;;;;-4.09;83.57;100500.72;5090634;28;20075;-47
2021/12/09 11:10:54;;;;;;;27.23;12.05;;;;;;;-4.08;83.52;100499.03;5091512;28;20052;-48
2021/12/09 11:13:23;;;;;;;25.58;11.35;;;;;;;-4.07;83.34;100504.19;5098352;28;20055;-47
2021/12/09 11:15:54;;;;;;;31.08;13.35;;;;;;;-4.05;83.32;100502.59;5096128;28;20055;-45
2021/12/09 11:18:33;;;;;;;27.27;13.13;;;;;;;-4.03;83.28;100492.53;5098477;28;20050;-59
2021/12/09 11:21:04;;;;;;;24.63;11.55;;;;;;;-4.02;83.26;100505.25;5094227;28;20109;-56
2021/12/09 11:23:35;;;;;;;28.00;12.85;;;;;;;-4.01;83.50;100496.88;5091605;28;20121;-48